createdAt,value
2024-05-09T00:00:48.942Z,3.30
2024-05-09T00:06:12.173Z,3.30
2024-05-09T00:11:16.382Z,3.20
2024-05-09T00:16:19.343Z,3.80
2024-05-09T00:21:22.237Z,3.50
2024-05-09T00:26:25.240Z,3.50
2024-05-09T00:31:28.301Z,4.10
2024-05-09T00:36:31.257Z,2.90
2024-05-09T00:41:34.360Z,3.10
2024-05-09T00:46:37.578Z,3.10
2024-05-09T00:51:42.140Z,4.10
2024-05-09T00:56:45.018Z,4.00
2024-05-09T01:01:48.652Z,3.70
2024-05-09T01:06:51.751Z,3.70
2024-05-09T01:11:54.975Z,3.20
2024-05-09T01:16:57.932Z,3.30
2024-05-09T01:22:01.061Z,3.60
2024-05-09T01:27:04.378Z,3.70
2024-05-09T01:32:07.497Z,4.30
2024-05-09T01:37:10.400Z,4.80
2024-05-09T01:42:13.306Z,3.90
2024-05-09T01:47:16.365Z,4.00
2024-05-09T01:52:19.617Z,5.10
2024-05-09T01:57:22.536Z,3.60
2024-05-09T02:02:25.644Z,4.90
2024-05-09T02:07:28.670Z,5.90
2024-05-09T02:12:31.752Z,5.90
2024-05-09T02:17:34.794Z,4.50
2024-05-09T02:22:37.774Z,3.60
2024-05-09T02:27:40.676Z,3.70
2024-05-09T02:32:43.686Z,3.00
2024-05-09T02:37:46.723Z,3.60
2024-05-09T02:42:49.701Z,3.80
2024-05-09T02:47:52.830Z,4.80
2024-05-09T02:52:55.953Z,3.50
2024-05-09T02:57:58.907Z,4.00
2024-05-09T03:03:02.185Z,3.30
2024-05-09T03:08:05.901Z,3.20
2024-05-09T03:13:12.643Z,3.30
2024-05-09T03:18:17.252Z,4.20
2024-05-09T03:23:20.342Z,4.30
2024-05-09T03:28:23.330Z,3.20
2024-05-09T03:33:26.562Z,3.20
2024-05-09T03:38:30.035Z,3.60
2024-05-09T03:43:33.029Z,4.10
2024-05-09T03:48:36.243Z,4.20
2024-05-09T03:53:39.532Z,3.80
2024-05-09T03:58:42.477Z,4.20
2024-05-09T04:03:45.639Z,4.00
2024-05-09T04:08:48.755Z,3.70
2024-05-09T04:13:51.645Z,3.60
2024-05-09T04:18:54.734Z,3.30
2024-05-09T04:23:57.814Z,3.20
2024-05-09T04:29:00.851Z,3.00
2024-05-09T04:34:04.418Z,3.40
2024-05-09T04:39:07.552Z,3.00
2024-05-09T04:44:10.721Z,3.10
2024-05-09T04:49:14.344Z,3.20
2024-05-09T04:54:29.529Z,3.20
2024-05-09T04:59:37.086Z,3.00
2024-05-09T05:04:40.157Z,3.10
2024-05-09T05:09:43.110Z,3.00
2024-05-09T05:14:46.221Z,2.90
2024-05-09T05:19:49.319Z,3.00
2024-05-09T05:24:52.436Z,2.90
2024-05-09T05:29:55.435Z,4.20
2024-05-09T05:34:58.354Z,4.90
2024-05-09T05:40:01.455Z,3.40
2024-05-09T05:45:06.784Z,2.60
2024-05-09T05:50:20.766Z,2.50
2024-05-09T06:00:38.441Z,2.80
2024-05-09T06:05:44.227Z,2.50
2024-05-09T06:10:47.743Z,2.60
2024-05-09T06:15:50.762Z,2.70
2024-05-09T06:20:53.792Z,2.70
2024-05-09T06:25:56.855Z,2.30
2024-05-09T06:31:01.829Z,2.50
2024-05-09T06:36:05.740Z,2.60
2024-05-09T06:41:08.794Z,1.90
2024-05-09T06:46:11.772Z,2.50
2024-05-09T06:51:14.878Z,2.10
2024-05-09T06:56:18.058Z,2.40
2024-05-09T07:01:21.045Z,1.90
2024-05-09T07:06:24.203Z,2.30
2024-05-09T07:11:27.384Z,2.10
2024-05-09T07:16:30.427Z,2.10
2024-05-09T07:21:33.431Z,2.20
2024-05-09T07:26:36.648Z,2.50
2024-05-09T07:31:40.368Z,3.20
2024-05-09T07:36:43.668Z,2.20
2024-05-09T07:41:47.012Z,2.00
2024-05-09T07:47:52.255Z,2.60
2024-05-09T07:53:29.788Z,2.20
2024-05-09T07:57:38.277Z,2.40
2024-05-09T08:02:41.560Z,2.90
2024-05-09T08:07:46.094Z,3.10
2024-05-09T08:12:49.010Z,3.60
2024-05-09T08:17:52.051Z,2.30
2024-05-09T08:22:55.183Z,2.60
2024-05-09T08:27:58.424Z,2.70
2024-05-09T08:33:01.650Z,2.20
2024-05-09T08:38:06.195Z,2.50
2024-05-09T08:43:11.947Z,2.20
2024-05-09T08:48:17.888Z,2.30
2024-05-09T08:53:21.420Z,2.40
2024-05-09T08:58:25.276Z,3.30
2024-05-09T09:03:33.051Z,2.60
2024-05-09T09:08:39.450Z,3.00
2024-05-09T09:13:42.353Z,3.30
2024-05-09T09:18:49.722Z,3.00
2024-05-09T09:23:52.850Z,3.50
2024-05-09T09:29:01.819Z,3.50
2024-05-09T09:34:08.936Z,3.30
2024-05-09T09:39:16.849Z,2.80
2024-05-09T09:44:22.100Z,2.60
2024-05-09T09:49:26.594Z,2.80
2024-05-09T09:54:29.914Z,3.40
2024-05-09T09:59:35.645Z,2.80
2024-05-09T10:04:38.603Z,3.00
2024-05-09T10:09:41.876Z,2.80
2024-05-09T10:14:49.303Z,2.90
2024-05-09T10:20:14.369Z,2.80
2024-05-09T10:25:25.193Z,2.60
2024-05-09T10:30:34.164Z,2.40
2024-05-09T10:35:39.273Z,2.60
2024-05-09T10:40:44.434Z,3.00
2024-05-09T10:45:49.213Z,2.70
2024-05-09T10:50:52.429Z,3.10
2024-05-09T10:56:00.926Z,3.20
2024-05-09T11:01:07.060Z,3.00
2024-05-09T11:06:11.681Z,3.00
2024-05-09T11:11:15.627Z,2.20
2024-05-09T11:16:21.378Z,2.40
2024-05-09T11:21:26.967Z,2.30
2024-05-09T11:26:32.376Z,2.40
2024-05-09T11:31:46.489Z,1.90
2024-05-09T11:36:49.622Z,2.30
2024-05-09T11:41:52.893Z,2.10
2024-05-09T11:46:56.398Z,2.00
2024-05-09T11:51:59.425Z,2.30
2024-05-09T11:57:02.609Z,2.30
2024-05-09T12:02:05.691Z,2.60
2024-05-09T12:07:11.414Z,2.30
2024-05-09T12:12:15.954Z,2.20
2024-05-09T12:17:18.992Z,2.50
2024-05-09T12:22:21.973Z,2.40
2024-05-09T12:27:24.951Z,2.60
2024-05-09T12:32:28.186Z,2.60
2024-05-09T12:37:31.167Z,2.30
2024-05-09T12:42:34.171Z,2.30
2024-05-09T12:47:37.098Z,2.30
2024-05-09T12:52:40.327Z,2.60
2024-05-09T12:57:43.531Z,2.40
2024-05-09T13:02:46.630Z,2.10
2024-05-09T13:07:50.240Z,2.20
2024-05-09T13:12:53.356Z,2.20
2024-05-09T13:18:00.533Z,2.40
2024-05-09T13:23:08.002Z,2.20
2024-05-09T13:28:12.341Z,2.40
2024-05-09T13:33:15.654Z,2.20
2024-05-09T13:38:20.159Z,2.40
2024-05-09T13:43:23.546Z,2.30
2024-05-09T13:48:26.697Z,2.10
2024-05-09T13:53:29.675Z,2.40
2024-05-09T13:58:32.842Z,2.30
2024-05-09T14:03:36.021Z,2.30
2024-05-09T14:08:39.004Z,2.30
2024-05-09T14:13:41.808Z,2.20
2024-05-09T14:18:44.725Z,2.30
2024-05-09T14:23:47.614Z,2.50
2024-05-09T14:28:50.516Z,2.30
2024-05-09T14:33:53.745Z,2.30
2024-05-09T14:38:56.838Z,2.40
2024-05-09T14:43:59.643Z,2.40
2024-05-09T14:49:02.802Z,2.40
2024-05-09T14:54:05.815Z,2.50
2024-05-09T14:59:09.312Z,2.50
2024-05-09T15:04:12.358Z,2.50
2024-05-09T15:09:15.495Z,2.90
2024-05-09T15:14:18.394Z,2.60
2024-05-09T15:19:21.532Z,2.40
2024-05-09T15:24:24.511Z,2.70
2024-05-09T15:29:29.465Z,2.50
2024-05-09T15:34:32.495Z,2.50
2024-05-09T15:39:35.608Z,2.50
2024-05-09T15:44:38.587Z,2.40
2024-05-09T15:49:41.675Z,2.40
2024-05-09T15:54:44.737Z,2.30
2024-05-09T15:59:47.779Z,2.20
2024-05-09T16:04:50.911Z,2.30
2024-05-09T16:09:54.000Z,2.30
2024-05-09T16:14:57.035Z,2.60
2024-05-09T16:20:00.201Z,2.80
2024-05-09T16:25:03.519Z,2.30
2024-05-09T16:30:11.967Z,10.80
2024-05-09T16:35:18.182Z,3.40
2024-05-09T16:40:29.654Z,2.60
2024-05-09T16:45:41.053Z,2.50
2024-05-09T16:50:44.117Z,2.80
2024-05-09T16:55:47.211Z,2.70
2024-05-09T17:00:50.731Z,2.40
2024-05-09T17:05:54.056Z,3.10
2024-05-09T17:10:57.184Z,2.90
2024-05-09T17:16:00.424Z,2.80
2024-05-09T17:21:03.666Z,3.00
2024-05-09T17:26:07.215Z,2.60
2024-05-09T17:31:10.629Z,2.20
2024-05-09T17:36:14.158Z,2.70
2024-05-09T17:41:17.135Z,2.20
2024-05-09T17:46:20.278Z,2.30
2024-05-09T17:51:23.977Z,2.60
2024-05-09T17:56:27.586Z,3.00
2024-05-09T18:01:30.771Z,2.40
2024-05-09T18:06:34.205Z,2.20
2024-05-09T18:11:37.350Z,2.00
2024-05-09T18:16:40.330Z,2.60
2024-05-09T18:21:43.312Z,6.50
2024-05-09T18:26:46.348Z,3.70
2024-05-09T18:31:49.350Z,4.10
2024-05-09T18:36:52.507Z,13.80
2024-05-09T18:41:55.973Z,7.30
2024-05-09T18:46:58.984Z,5.40
2024-05-09T18:52:02.075Z,6.90
2024-05-09T18:57:05.693Z,5.30
2024-05-09T19:02:08.755Z,4.30
2024-05-09T19:07:13.503Z,7.50
2024-05-09T19:12:17.045Z,5.20
2024-05-09T19:17:20.042Z,5.10
2024-05-09T19:22:23.223Z,4.10
2024-05-09T19:27:26.412Z,5.10
2024-05-09T19:32:29.618Z,6.40
2024-05-09T19:37:32.739Z,4.50
2024-05-09T19:42:35.785Z,4.80
2024-05-09T19:47:39.353Z,7.90
2024-05-09T19:52:42.369Z,4.00
2024-05-09T19:57:45.318Z,5.40
2024-05-09T20:02:48.422Z,4.10
2024-05-09T20:07:51.388Z,8.00
2024-05-09T20:12:54.430Z,6.90
2024-05-09T20:17:57.673Z,13.90
2024-05-09T20:23:00.992Z,22.40
2024-05-09T20:28:05.927Z,5.90
2024-05-09T20:33:10.042Z,6.10
2024-05-09T20:38:13.529Z,5.20
2024-05-09T20:43:16.468Z,18.10
2024-05-09T20:48:19.485Z,12.60
2024-05-09T20:53:22.664Z,5.50
2024-05-09T20:58:25.763Z,5.70
2024-05-09T21:03:30.203Z,5.90
2024-05-09T21:08:33.617Z,6.40
2024-05-09T21:13:36.572Z,6.70
2024-05-09T21:18:40.176Z,6.20
2024-05-09T21:23:43.862Z,5.60
2024-05-09T21:28:46.924Z,6.30
2024-05-09T21:33:50.203Z,6.00
2024-05-09T21:38:53.554Z,11.30
2024-05-09T21:43:56.669Z,7.50
2024-05-09T21:48:59.975Z,5.50
2024-05-09T21:54:03.279Z,6.60
2024-05-09T21:59:06.754Z,5.00
2024-05-09T22:04:09.858Z,6.30
2024-05-09T22:09:12.878Z,5.70
2024-05-09T22:14:15.774Z,5.50
2024-05-09T22:19:18.952Z,5.80
2024-05-09T22:24:21.994Z,4.90
2024-05-09T22:29:24.898Z,5.70
2024-05-09T22:34:27.855Z,6.00
2024-05-09T22:39:30.805Z,6.20
2024-05-09T22:44:34.117Z,5.60
2024-05-09T22:49:37.245Z,5.70
2024-05-09T22:54:40.285Z,4.80
2024-05-09T22:59:43.242Z,5.90
2024-05-09T23:04:46.403Z,5.60
2024-05-09T23:09:49.398Z,5.50
2024-05-09T23:14:52.365Z,5.40
2024-05-09T23:19:55.268Z,5.20
2024-05-09T23:24:58.332Z,4.80
2024-05-09T23:30:01.276Z,4.10
2024-05-09T23:35:04.877Z,4.50
2024-05-09T23:40:09.711Z,4.30
2024-05-09T23:45:13.186Z,4.10
2024-05-09T23:50:20.675Z,4.30
2024-05-09T23:55:29.464Z,4.40
